sensor_id;sensor_type;location;lat;lon;timestamp;pressure;altitude;pressure_sealevel;temperature;humidity
68197;BME280;55019;49.382;11.358;2023-11-21T00:00:01;96060.72;;;6.52;100.00
68197;BME280;55019;49.382;11.358;2023-11-21T00:02:27;96057.38;;;6.51;100.00
68197;BME280;55019;49.382;11.358;2023-11-21T00:04:53;96049.94;;;6.40;100.00
68197;BME280;55019;49.382;11.358;2023-11-21T00:07:19;96049.19;;;6.56;100.00
68197;BME280;55019;49.382;11.358;2023-11-21T00:09:46;96045.84;;;6.55;100.00
68197;BME280;55019;49.382;11.358;2023-11-21T00:12:12;96045.94;;;6.71;100.00
68197;BME280;55019;49.382;11.358;2023-11-21T00:14:39;96047.88;;;6.77;100.00
68197;BME280;55019;49.382;11.358;2023-11-21T00:17:05;96052.69;;;6.72;100.00
68197;BME280;55019;49.382;11.358;2023-11-21T00:19:32;96055.78;;;6.84;100.00
68197;BME280;55019;49.382;11.358;2023-11-21T00:21:58;96049.50;;;6.78;100.00
68197;BME280;55019;49.382;11.358;2023-11-21T00:24:24;96054.94;;;6.75;100.00
68197;BME280;55019;49.382;11.358;2023-11-21T00:26:51;96046.34;;;6.59;100.00
68197;BME280;55019;49.382;11.358;2023-11-21T00:29:17;96047.41;;;6.48;100.00
68197;BME280;55019;49.382;11.358;2023-11-21T00:31:44;96047.72;;;6.45;100.00
68197;BME280;55019;49.382;11.358;2023-11-21T00:34:11;96051.69;;;6.22;100.00
68197;BME280;55019;49.382;11.358;2023-11-21T00:36:37;96046.81;;;6.11;100.00
68197;BME280;55019;49.382;11.358;2023-11-21T00:39:03;96043.34;;;6.20;100.00
68197;BME280;55019;49.382;11.358;2023-11-21T00:41:33;96039.63;;;6.15;100.00
68197;BME280;55019;49.382;11.358;2023-11-21T00:44:00;96043.66;;;6.00;100.00
68197;BME280;55019;49.382;11.358;2023-11-21T00:46:26;96037.88;;;5.98;100.00
68197;BME280;55019;49.382;11.358;2023-11-21T00:48:55;96042.00;;;5.91;100.00
68197;BME280;55019;49.382;11.358;2023-11-21T00:51:21;96044.97;;;5.86;100.00
68197;BME280;55019;49.382;11.358;2023-11-21T00:53:47;96039.59;;;5.89;100.00
68197;BME280;55019;49.382;11.358;2023-11-21T00:56:13;96029.81;;;5.93;100.00
68197;BME280;55019;49.382;11.358;2023-11-21T00:58:41;96043.66;;;5.82;100.00
68197;BME280;55019;49.382;11.358;2023-11-21T01:01:15;96046.16;;;5.92;100.00
68197;BME280;55019;49.382;11.358;2023-11-21T01:03:41;96028.84;;;5.76;100.00
68197;BME280;55019;49.382;11.358;2023-11-21T01:06:13;96047.00;;;5.92;100.00
68197;BME280;55019;49.382;11.358;2023-11-21T01:08:38;96042.13;;;6.07;100.00
68197;BME280;55019;49.382;11.358;2023-11-21T01:11:04;96042.94;;;6.07;100.00
68197;BME280;55019;49.382;11.358;2023-11-21T01:13:33;96044.63;;;5.99;100.00
68197;BME280;55019;49.382;11.358;2023-11-21T01:15:58;96048.13;;;5.80;100.00
68197;BME280;55019;49.382;11.358;2023-11-21T01:18:24;96040.75;;;5.95;100.00
68197;BME280;55019;49.382;11.358;2023-11-21T01:20:51;96047.06;;;6.00;100.00
68197;BME280;55019;49.382;11.358;2023-11-21T01:23:18;96049.25;;;5.95;100.00
68197;BME280;55019;49.382;11.358;2023-11-21T01:25:44;96050.94;;;6.04;100.00
68197;BME280;55019;49.382;11.358;2023-11-21T01:28:09;96049.97;;;5.88;100.00
68197;BME280;55019;49.382;11.358;2023-11-21T01:30:35;96042.16;;;5.89;100.00
68197;BME280;55019;49.382;11.358;2023-11-21T01:33:01;96039.78;;;5.78;100.00
68197;BME280;55019;49.382;11.358;2023-11-21T01:35:26;96040.44;;;5.80;100.00
68197;BME280;55019;49.382;11.358;2023-11-21T01:37:52;96038.75;;;5.71;100.00
68197;BME280;55019;49.382;11.358;2023-11-21T01:40:19;96039.56;;;5.72;100.00
68197;BME280;55019;49.382;11.358;2023-11-21T01:42:44;96040.06;;;5.75;100.00
68197;BME280;55019;49.382;11.358;2023-11-21T01:45:12;96034.94;;;5.75;100.00
68197;BME280;55019;49.382;11.358;2023-11-21T01:47:38;96046.63;;;5.87;100.00
68197;BME280;55019;49.382;11.358;2023-11-21T01:50:13;96031.66;;;6.00;100.00
68197;BME280;55019;49.382;11.358;2023-11-21T01:52:40;96041.63;;;6.03;100.00
68197;BME280;55019;49.382;11.358;2023-11-21T01:55:07;96038.41;;;6.01;100.00
68197;BME280;55019;49.382;11.358;2023-11-21T01:57:35;96031.97;;;5.97;100.00
68197;BME280;55019;49.382;11.358;2023-11-21T02:00:03;96039.78;;;6.13;100.00
68197;BME280;55019;49.382;11.358;2023-11-21T02:02:45;96019.66;;;5.83;100.00
68197;BME280;55019;49.382;11.358;2023-11-21T02:05:11;96024.94;;;5.82;100.00
68197;BME280;55019;49.382;11.358;2023-11-21T02:07:44;96028.81;;;5.86;100.00
68197;BME280;55019;49.382;11.358;2023-11-21T02:10:11;96036.03;;;5.73;100.00
68197;BME280;55019;49.382;11.358;2023-11-21T02:12:44;96024.78;;;5.66;100.00
68197;BME280;55019;49.382;11.358;2023-11-21T02:15:13;96029.94;;;5.57;100.00
68197;BME280;55019;49.382;11.358;2023-11-21T02:17:52;96023.28;;;5.63;100.00
68197;BME280;55019;49.382;11.358;2023-11-21T02:20:20;96020.50;;;5.57;100.00
68197;BME280;55019;49.382;11.358;2023-11-21T02:22:52;96024.16;;;5.55;100.00
68197;BME280;55019;49.382;11.358;2023-11-21T02:25:31;96021.75;;;5.70;100.00
68197;BME280;55019;49.382;11.358;2023-11-21T02:27:59;96021.25;;;5.67;100.00
68197;BME280;55019;49.382;11.358;2023-11-21T02:30:25;96014.75;;;5.90;100.00
68197;BME280;55019;49.382;11.358;2023-11-21T02:32:53;96024.88;;;5.91;100.00
68197;BME280;55019;49.382;11.358;2023-11-21T02:35:22;96016.78;;;6.04;100.00
68197;BME280;55019;49.382;11.358;2023-11-21T02:37:49;96021.53;;;6.16;100.00
68197;BME280;55019;49.382;11.358;2023-11-21T02:40:15;96019.19;;;6.23;100.00
68197;BME280;55019;49.382;11.358;2023-11-21T02:42:44;96022.13;;;6.10;100.00
68197;BME280;55019;49.382;11.358;2023-11-21T02:45:13;96010.16;;;6.19;100.00
68197;BME280;55019;49.382;11.358;2023-11-21T02:47:40;96015.50;;;6.25;100.00
68197;BME280;55019;49.382;11.358;2023-11-21T02:50:11;96013.38;;;6.21;100.00
68197;BME280;55019;49.382;11.358;2023-11-21T02:52:39;96004.00;;;6.12;100.00
68197;BME280;55019;49.382;11.358;2023-11-21T02:55:07;96000.03;;;6.17;100.00
68197;BME280;55019;49.382;11.358;2023-11-21T02:57:33;96014.41;;;6.28;100.00
68197;BME280;55019;49.382;11.358;2023-11-21T02:59:59;95994.19;;;6.25;100.00
68197;BME280;55019;49.382;11.358;2023-11-21T03:02:25;96004.78;;;6.30;100.00
68197;BME280;55019;49.382;11.358;2023-11-21T03:04:51;96002.22;;;6.30;100.00
68197;BME280;55019;49.382;11.358;2023-11-21T03:07:18;96007.59;;;6.19;100.00
68197;BME280;55019;49.382;11.358;2023-11-21T03:09:45;95999.69;;;6.12;100.00
68197;BME280;55019;49.382;11.358;2023-11-21T03:12:11;96002.16;;;5.96;100.00
68197;BME280;55019;49.382;11.358;2023-11-21T03:14:41;96008.91;;;6.23;100.00
68197;BME280;55019;49.382;11.358;2023-11-21T03:17:07;96013.09;;;6.24;100.00
68197;BME280;55019;49.382;11.358;2023-11-21T03:19:32;96007.81;;;6.08;100.00
68197;BME280;55019;49.382;11.358;2023-11-21T03:21:58;96017.66;;;6.12;100.00
68197;BME280;55019;49.382;11.358;2023-11-21T03:24:24;96007.41;;;5.95;100.00
68197;BME280;55019;49.382;11.358;2023-11-21T03:26:50;96010.44;;;5.90;100.00
68197;BME280;55019;49.382;11.358;2023-11-21T03:29:17;96009.09;;;5.86;100.00
68197;BME280;55019;49.382;11.358;2023-11-21T03:31:43;96012.44;;;5.69;100.00
68197;BME280;55019;49.382;11.358;2023-11-21T03:34:23;96012.69;;;5.76;100.00
68197;BME280;55019;49.382;11.358;2023-11-21T03:36:50;96009.38;;;5.66;100.00
68197;BME280;55019;49.382;11.358;2023-11-21T03:39:21;96008.94;;;5.70;100.00
68197;BME280;55019;49.382;11.358;2023-11-21T03:41:48;96005.31;;;5.90;100.00
68197;BME280;55019;49.382;11.358;2023-11-21T03:44:15;96011.22;;;5.91;100.00
68197;BME280;55019;49.382;11.358;2023-11-21T03:46:41;96010.63;;;5.79;100.00
68197;BME280;55019;49.382;11.358;2023-11-21T03:49:06;96019.66;;;5.83;100.00
68197;BME280;55019;49.382;11.358;2023-11-21T03:51:34;96019.34;;;5.86;100.00
68197;BME280;55019;49.382;11.358;2023-11-21T03:54:01;96011.66;;;5.69;100.00
68197;BME280;55019;49.382;11.358;2023-11-21T03:56:27;96019.34;;;5.86;100.00
68197;BME280;55019;49.382;11.358;2023-11-21T03:58:55;96009.69;;;5.80;100.00
68197;BME280;55019;49.382;11.358;2023-11-21T04:01:24;96012.34;;;5.88;100.00
68197;BME280;55019;49.382;11.358;2023-11-21T04:03:50;96011.84;;;5.75;100.00
68197;BME280;55019;49.382;11.358;2023-11-21T04:06:17;96022.78;;;5.77;100.00
68197;BME280;55019;49.382;11.358;2023-11-21T04:08:44;96023.63;;;5.78;100.00
68197;BME280;55019;49.382;11.358;2023-11-21T04:11:10;96024.28;;;5.97;100.00
68197;BME280;55019;49.382;11.358;2023-11-21T04:13:38;96025.47;;;6.11;100.00
68197;BME280;55019;49.382;11.358;2023-11-21T04:16:07;96003.75;;;5.97;100.00
68197;BME280;55019;49.382;11.358;2023-11-21T04:18:36;96011.88;;;5.93;100.00
68197;BME280;55019;49.382;11.358;2023-11-21T04:21:02;96011.72;;;5.77;100.00
68197;BME280;55019;49.382;11.358;2023-11-21T04:23:28;96011.81;;;5.85;100.00
68197;BME280;55019;49.382;11.358;2023-11-21T04:25:54;96014.81;;;5.80;100.00
68197;BME280;55019;49.382;11.358;2023-11-21T04:28:22;96018.03;;;5.82;100.00
68197;BME280;55019;49.382;11.358;2023-11-21T04:30:48;96011.28;;;5.81;100.00
68197;BME280;55019;49.382;11.358;2023-11-21T04:33:14;96020.16;;;6.04;100.00
68197;BME280;55019;49.382;11.358;2023-11-21T04:35:39;96020.22;;;6.12;100.00
68197;BME280;55019;49.382;11.358;2023-11-21T04:38:05;96020.63;;;6.25;100.00
68197;BME280;55019;49.382;11.358;2023-11-21T04:40:31;96021.81;;;6.13;100.00
68197;BME280;55019;49.382;11.358;2023-11-21T04:42:56;96027.72;;;5.88;100.00
68197;BME280;55019;49.382;11.358;2023-11-21T04:45:22;96030.34;;;5.96;100.00
68197;BME280;55019;49.382;11.358;2023-11-21T04:47:48;96032.09;;;5.78;100.00
68197;BME280;55019;49.382;11.358;2023-11-21T04:50:14;96041.56;;;5.78;100.00
68197;BME280;55019;49.382;11.358;2023-11-21T04:52:43;96037.78;;;5.72;100.00
68197;BME280;55019;49.382;11.358;2023-11-21T04:55:08;96042.88;;;5.82;100.00
68197;BME280;55019;49.382;11.358;2023-11-21T04:57:36;96036.81;;;5.83;100.00
68197;BME280;55019;49.382;11.358;2023-11-21T05:00:03;96039.97;;;5.67;100.00
68197;BME280;55019;49.382;11.358;2023-11-21T05:02:34;96030.56;;;5.68;100.00
68197;BME280;55019;49.382;11.358;2023-11-21T05:05:01;96028.34;;;5.73;100.00
68197;BME280;55019;49.382;11.358;2023-11-21T05:07:27;96037.47;;;5.85;100.00
68197;BME280;55019;49.382;11.358;2023-11-21T05:09:55;96041.28;;;5.81;100.00
68197;BME280;55019;49.382;11.358;2023-11-21T05:12:22;96044.38;;;5.75;100.00
68197;BME280;55019;49.382;11.358;2023-11-21T05:14:49;96039.75;;;5.61;100.00
68197;BME280;55019;49.382;11.358;2023-11-21T05:17:15;96033.78;;;5.70;100.00
68197;BME280;55019;49.382;11.358;2023-11-21T05:19:40;96048.25;;;5.62;100.00
68197;BME280;55019;49.382;11.358;2023-11-21T05:22:06;96036.94;;;5.81;100.00
68197;BME280;55019;49.382;11.358;2023-11-21T05:24:33;96040.63;;;5.69;100.00
68197;BME280;55019;49.382;11.358;2023-11-21T05:26:59;96044.75;;;5.63;100.00
68197;BME280;55019;49.382;11.358;2023-11-21T05:29:25;96052.03;;;5.84;100.00
68197;BME280;55019;49.382;11.358;2023-11-21T05:31:51;96049.03;;;5.89;100.00
68197;BME280;55019;49.382;11.358;2023-11-21T05:34:17;96043.97;;;5.79;100.00
68197;BME280;55019;49.382;11.358;2023-11-21T05:36:43;96059.34;;;5.79;100.00
68197;BME280;55019;49.382;11.358;2023-11-21T05:39:11;96068.72;;;5.71;100.00
68197;BME280;55019;49.382;11.358;2023-11-21T05:41:37;96063.69;;;5.79;100.00
68197;BME280;55019;49.382;11.358;2023-11-21T05:44:03;96058.81;;;5.76;100.00
68197;BME280;55019;49.382;11.358;2023-11-21T05:46:28;96063.75;;;5.87;100.00
68197;BME280;55019;49.382;11.358;2023-11-21T05:48:54;96063.69;;;5.79;100.00
68197;BME280;55019;49.382;11.358;2023-11-21T05:51:20;96074.31;;;5.74;100.00
68197;BME280;55019;49.382;11.358;2023-11-21T05:53:46;96070.91;;;5.83;100.00
68197;BME280;55019;49.382;11.358;2023-11-21T05:56:12;96069.06;;;5.76;100.00
68197;BME280;55019;49.382;11.358;2023-11-21T05:58:39;96065.28;;;5.80;100.00
68197;BME280;55019;49.382;11.358;2023-11-21T06:01:05;96066.34;;;5.77;100.00
68197;BME280;55019;49.382;11.358;2023-11-21T06:03:33;96073.16;;;5.69;100.00
68197;BME280;55019;49.382;11.358;2023-11-21T06:05:59;96068.34;;;5.66;100.00
68197;BME280;55019;49.382;11.358;2023-11-21T06:08:24;96077.47;;;5.68;100.00
68197;BME280;55019;49.382;11.358;2023-11-21T06:10:50;96082.41;;;5.79;100.00
68197;BME280;55019;49.382;11.358;2023-11-21T06:13:16;96079.06;;;5.79;100.00
68197;BME280;55019;49.382;11.358;2023-11-21T06:15:42;96079.50;;;5.92;100.00
68197;BME280;55019;49.382;11.358;2023-11-21T06:18:07;96085.59;;;6.08;100.00
68197;BME280;55019;49.382;11.358;2023-11-21T06:20:35;96084.84;;;5.98;100.00
68197;BME280;55019;49.382;11.358;2023-11-21T06:23:02;96079.25;;;5.85;100.00
68197;BME280;55019;49.382;11.358;2023-11-21T06:25:29;96087.50;;;6.06;100.00
68197;BME280;55019;49.382;11.358;2023-11-21T06:27:55;96096.44;;;6.02;100.00
68197;BME280;55019;49.382;11.358;2023-11-21T06:30:22;96089.09;;;6.07;100.00
68197;BME280;55019;49.382;11.358;2023-11-21T06:32:48;96090.53;;;6.10;100.00
68197;BME280;55019;49.382;11.358;2023-11-21T06:35:15;96091.84;;;6.31;100.00
68197;BME280;55019;49.382;11.358;2023-11-21T06:37:41;96101.09;;;6.42;100.00
68197;BME280;55019;49.382;11.358;2023-11-21T06:40:07;96090.47;;;6.37;100.00
68197;BME280;55019;49.382;11.358;2023-11-21T06:42:33;96081.28;;;6.34;100.00
68197;BME280;55019;49.382;11.358;2023-11-21T06:44:59;96101.50;;;6.55;100.00
68197;BME280;55019;49.382;11.358;2023-11-21T06:47:27;96097.75;;;6.67;100.00
68197;BME280;55019;49.382;11.358;2023-11-21T06:49:55;96098.06;;;6.64;100.00
68197;BME280;55019;49.382;11.358;2023-11-21T06:52:20;96101.75;;;6.69;100.00
68197;BME280;55019;49.382;11.358;2023-11-21T06:54:47;96097.53;;;6.60;100.00
68197;BME280;55019;49.382;11.358;2023-11-21T06:57:15;96108.16;;;6.65;100.00
68197;BME280;55019;49.382;11.358;2023-11-21T06:59:41;96097.22;;;6.20;100.00
68197;BME280;55019;49.382;11.358;2023-11-21T07:02:07;96108.50;;;6.10;100.00
68197;BME280;55019;49.382;11.358;2023-11-21T07:04:33;96105.81;;;6.11;100.00
68197;BME280;55019;49.382;11.358;2023-11-21T07:06:59;96115.19;;;6.20;100.00
68197;BME280;55019;49.382;11.358;2023-11-21T07:09:25;96102.28;;;6.12;100.00
68197;BME280;55019;49.382;11.358;2023-11-21T07:11:54;96117.81;;;6.28;100.00
68197;BME280;55019;49.382;11.358;2023-11-21T07:14:21;96113.13;;;6.41;100.00
68197;BME280;55019;49.382;11.358;2023-11-21T07:16:46;96135.06;;;6.61;100.00
68197;BME280;55019;49.382;11.358;2023-11-21T07:19:12;96135.97;;;6.52;100.00
68197;BME280;55019;49.382;11.358;2023-11-21T07:21:39;96131.81;;;6.34;100.00
68197;BME280;55019;49.382;11.358;2023-11-21T07:24:06;96139.88;;;6.39;100.00
68197;BME280;55019;49.382;11.358;2023-11-21T07:26:32;96133.47;;;6.60;100.00
68197;BME280;55019;49.382;11.358;2023-11-21T07:28:59;96142.34;;;6.66;100.00
68197;BME280;55019;49.382;11.358;2023-11-21T07:31:25;96143.97;;;6.49;100.00
68197;BME280;55019;49.382;11.358;2023-11-21T07:33:51;96151.97;;;6.46;100.00
68197;BME280;55019;49.382;11.358;2023-11-21T07:36:18;96151.91;;;6.21;100.00
68197;BME280;55019;49.382;11.358;2023-11-21T07:38:44;96160.16;;;6.32;100.00
68197;BME280;55019;49.382;11.358;2023-11-21T07:41:11;96156.94;;;6.30;100.00
68197;BME280;55019;49.382;11.358;2023-11-21T07:43:37;96164.06;;;6.36;100.00
68197;BME280;55019;49.382;11.358;2023-11-21T07:46:04;96159.31;;;6.41;100.00
68197;BME280;55019;49.382;11.358;2023-11-21T07:48:33;96162.28;;;6.72;100.00
68197;BME280;55019;49.382;11.358;2023-11-21T07:51:01;96160.59;;;6.88;100.00
68197;BME280;55019;49.382;11.358;2023-11-21T07:53:29;96169.13;;;6.89;100.00
68197;BME280;55019;49.382;11.358;2023-11-21T07:55:56;96173.06;;;7.01;100.00
68197;BME280;55019;49.382;11.358;2023-11-21T07:58:22;96179.28;;;6.73;100.00
68197;BME280;55019;49.382;11.358;2023-11-21T08:00:49;96183.53;;;6.82;100.00
68197;BME280;55019;49.382;11.358;2023-11-21T08:03:16;96180.22;;;6.89;100.00
68197;BME280;55019;49.382;11.358;2023-11-21T08:05:42;96183.47;;;6.74;100.00
68197;BME280;55019;49.382;11.358;2023-11-21T08:08:08;96177.38;;;6.75;100.00
68197;BME280;55019;49.382;11.358;2023-11-21T08:10:34;96185.78;;;6.85;100.00
68197;BME280;55019;49.382;11.358;2023-11-21T08:13:01;96177.81;;;6.70;100.00
68197;BME280;55019;49.382;11.358;2023-11-21T08:15:27;96176.63;;;6.82;100.00
68197;BME280;55019;49.382;11.358;2023-11-21T08:17:53;96184.16;;;7.01;100.00
68197;BME280;55019;49.382;11.358;2023-11-21T08:20:19;96179.81;;;7.27;100.00
68197;BME280;55019;49.382;11.358;2023-11-21T08:22:45;96181.56;;;7.52;100.00
68197;BME280;55019;49.382;11.358;2023-11-21T08:25:13;96178.41;;;7.74;100.00
68197;BME280;55019;49.382;11.358;2023-11-21T08:27:38;96181.75;;;8.08;100.00
68197;BME280;55019;49.382;11.358;2023-11-21T08:30:05;96181.34;;;8.20;100.00
68197;BME280;55019;49.382;11.358;2023-11-21T08:32:30;96177.06;;;8.03;100.00
68197;BME280;55019;49.382;11.358;2023-11-21T08:34:59;96174.91;;;7.83;100.00
68197;BME280;55019;49.382;11.358;2023-11-21T08:37:25;96179.00;;;8.09;100.00
68197;BME280;55019;49.382;11.358;2023-11-21T08:39:53;96172.63;;;7.72;100.00
68197;BME280;55019;49.382;11.358;2023-11-21T08:42:19;96173.19;;;7.99;100.00
68197;BME280;55019;49.382;11.358;2023-11-21T08:44:45;96171.13;;;8.03;100.00
68197;BME280;55019;49.382;11.358;2023-11-21T08:47:11;96177.31;;;8.18;100.00
68197;BME280;55019;49.382;11.358;2023-11-21T08:49:37;96178.28;;;8.25;100.00
68197;BME280;55019;49.382;11.358;2023-11-21T08:52:03;96186.97;;;8.40;100.00
68197;BME280;55019;49.382;11.358;2023-11-21T08:54:31;96188.94;;;8.54;100.00
68197;BME280;55019;49.382;11.358;2023-11-21T08:56:56;96187.03;;;8.56;100.00
68197;BME280;55019;49.382;11.358;2023-11-21T08:59:24;96193.28;;;8.37;100.00
68197;BME280;55019;49.382;11.358;2023-11-21T09:01:50;96187.97;;;8.47;100.00
68197;BME280;55019;49.382;11.358;2023-11-21T09:04:16;96203.56;;;8.37;100.00
68197;BME280;55019;49.382;11.358;2023-11-21T09:06:42;96204.22;;;8.39;100.00
68197;BME280;55019;49.382;11.358;2023-11-21T09:09:08;96200.72;;;8.07;100.00
68197;BME280;55019;49.382;11.358;2023-11-21T09:11:36;96211.03;;;8.07;100.00
68197;BME280;55019;49.382;11.358;2023-11-21T09:14:02;96201.41;;;8.17;100.00
68197;BME280;55019;49.382;11.358;2023-11-21T09:16:31;96215.13;;;8.25;100.00
68197;BME280;55019;49.382;11.358;2023-11-21T09:18:58;96219.19;;;8.44;100.00
68197;BME280;55019;49.382;11.358;2023-11-21T09:21:23;96223.22;;;8.54;100.00
68197;BME280;55019;49.382;11.358;2023-11-21T09:23:51;96231.25;;;8.59;100.00
68197;BME280;55019;49.382;11.358;2023-11-21T09:26:20;96218.56;;;8.57;100.00
68197;BME280;55019;49.382;11.358;2023-11-21T09:28:45;96224.69;;;8.64;100.00
68197;BME280;55019;49.382;11.358;2023-11-21T09:31:13;96236.91;;;8.70;100.00
68197;BME280;55019;49.382;11.358;2023-11-21T09:33:42;96237.38;;;8.58;100.00
68197;BME280;55019;49.382;11.358;2023-11-21T09:36:12;96242.06;;;8.55;100.00
68197;BME280;55019;49.382;11.358;2023-11-21T09:38:39;96242.72;;;8.80;100.00
68197;BME280;55019;49.382;11.358;2023-11-21T09:41:10;96244.00;;;8.76;100.00
68197;BME280;55019;49.382;11.358;2023-11-21T09:43:38;96237.88;;;8.61;100.00
68197;BME280;55019;49.382;11.358;2023-11-21T09:46:06;96234.31;;;8.47;100.00
68197;BME280;55019;49.382;11.358;2023-11-21T09:48:38;96231.13;;;8.60;100.00
68197;BME280;55019;49.382;11.358;2023-11-21T09:51:05;96236.91;;;8.62;100.00
68197;BME280;55019;49.382;11.358;2023-11-21T09:53:31;96237.88;;;8.61;100.00
68197;BME280;55019;49.382;11.358;2023-11-21T09:55:59;96234.34;;;8.55;100.00
68197;BME280;55019;49.382;11.358;2023-11-21T09:58:28;96235.13;;;8.47;100.00
68197;BME280;55019;49.382;11.358;2023-11-21T10:00:57;96243.16;;;8.44;100.00
68197;BME280;55019;49.382;11.358;2023-11-21T10:03:25;96236.84;;;8.39;100.00
68197;BME280;55019;49.382;11.358;2023-11-21T10:05:51;96238.50;;;8.56;100.00
68197;BME280;55019;49.382;11.358;2023-11-21T10:08:19;96238.06;;;8.68;100.00
68197;BME280;55019;49.382;11.358;2023-11-21T10:10:49;96242.06;;;8.62;100.00
68197;BME280;55019;49.382;11.358;2023-11-21T10:13:17;96225.78;;;8.54;100.00
68197;BME280;55019;49.382;11.358;2023-11-21T10:15:51;96235.94;;;8.71;100.00
68197;BME280;55019;49.382;11.358;2023-11-21T10:18:18;96237.09;;;8.77;100.00
68197;BME280;55019;49.382;11.358;2023-11-21T10:20:44;96240.47;;;9.17;100.00
68197;BME280;55019;49.382;11.358;2023-11-21T10:23:19;96231.94;;;9.87;100.00
68197;BME280;55019;49.382;11.358;2023-11-21T10:25:44;96236.88;;;10.65;100.00
68197;BME280;55019;49.382;11.358;2023-11-21T10:28:10;96234.97;;;11.27;100.00
68197;BME280;55019;49.382;11.358;2023-11-21T10:30:38;96235.16;;;11.25;100.00
68197;BME280;55019;49.382;11.358;2023-11-21T10:33:05;96229.13;;;10.65;100.00
68197;BME280;55019;49.382;11.358;2023-11-21T10:35:48;96229.84;;;10.29;100.00
68197;BME280;55019;49.382;11.358;2023-11-21T10:38:21;96232.56;;;9.97;100.00
68197;BME280;55019;49.382;11.358;2023-11-21T10:40:48;96239.00;;;10.09;100.00
68197;BME280;55019;49.382;11.358;2023-11-21T10:43:15;96235.44;;;10.10;100.00
68197;BME280;55019;49.382;11.358;2023-11-21T10:45:42;96241.94;;;9.82;100.00
68197;BME280;55019;49.382;11.358;2023-11-21T10:48:15;96243.25;;;9.78;100.00
68197;BME280;55019;49.382;11.358;2023-11-21T10:50:41;96239.69;;;9.79;100.00
68197;BME280;55019;49.382;11.358;2023-11-21T10:53:08;96235.94;;;10.36;100.00
68197;BME280;55019;49.382;11.358;2023-11-21T10:55:34;96241.91;;;11.48;100.00
68197;BME280;55019;49.382;11.358;2023-11-21T10:58:01;96242.69;;;13.55;100.00
68197;BME280;55019;49.382;11.358;2023-11-21T11:00:29;96241.13;;;14.22;100.00
68197;BME280;55019;49.382;11.358;2023-11-21T11:02:55;96238.84;;;14.59;100.00
68197;BME280;55019;49.382;11.358;2023-11-21T11:05:26;96237.41;;;15.49;100.00
68197;BME280;55019;49.382;11.358;2023-11-21T11:08:04;96232.50;;;16.67;97.12
68197;BME280;55019;49.382;11.358;2023-11-21T11:10:31;96234.03;;;17.12;91.88
68197;BME280;55019;49.382;11.358;2023-11-21T11:12:58;96230.41;;;17.13;85.46
68197;BME280;55019;49.382;11.358;2023-11-21T11:15:25;96234.06;;;17.85;84.81
68197;BME280;55019;49.382;11.358;2023-11-21T11:17:53;96231.50;;;18.87;74.70
68197;BME280;55019;49.382;11.358;2023-11-21T11:20:34;96245.16;;;19.70;66.19
68197;BME280;55019;49.382;11.358;2023-11-21T11:23:57;96250.84;;;17.23;82.60
68197;BME280;55019;49.382;11.358;2023-11-21T11:32:04;96243.44;;;12.65;100.00
68197;BME280;55019;49.382;11.358;2023-11-21T11:34:50;96237.84;;;12.83;100.00
68197;BME280;55019;49.382;11.358;2023-11-21T11:37:16;96245.28;;;13.55;100.00
68197;BME280;55019;49.382;11.358;2023-11-21T11:39:42;96238.16;;;15.17;100.00
68197;BME280;55019;49.382;11.358;2023-11-21T11:42:16;96245.34;;;16.05;100.00
68197;BME280;55019;49.382;11.358;2023-11-21T11:47:29;96240.34;;;15.91;100.00
68197;BME280;55019;49.382;11.358;2023-11-21T11:50:09;96235.59;;;15.36;100.00
68197;BME280;55019;49.382;11.358;2023-11-21T11:52:49;96242.72;;;14.82;100.00
68197;BME280;55019;49.382;11.358;2023-11-21T11:55:18;96240.34;;;13.66;100.00
68197;BME280;55019;49.382;11.358;2023-11-21T11:57:49;96243.78;;;12.77;100.00
68197;BME280;55019;49.382;11.358;2023-11-21T12:00:22;96252.03;;;11.72;100.00
68197;BME280;55019;49.382;11.358;2023-11-21T12:02:52;96248.56;;;11.06;100.00
68197;BME280;55019;49.382;11.358;2023-11-21T12:05:20;96249.47;;;10.38;100.00
68197;BME280;55019;49.382;11.358;2023-11-21T12:07:51;96259.31;;;10.12;100.00
68197;BME280;55019;49.382;11.358;2023-11-21T12:10:21;96251.41;;;9.35;100.00
68197;BME280;55019;49.382;11.358;2023-11-21T12:12:57;96261.06;;;9.49;100.00
68197;BME280;55019;49.382;11.358;2023-11-21T12:15:23;96264.63;;;9.24;100.00
68197;BME280;55019;49.382;11.358;2023-11-21T12:17:51;96260.75;;;9.20;100.00
68197;BME280;55019;49.382;11.358;2023-11-21T12:20:22;96257.38;;;9.28;100.00
68197;BME280;55019;49.382;11.358;2023-11-21T12:22:49;96245.31;;;9.20;100.00
68197;BME280;55019;49.382;11.358;2023-11-21T12:25:23;96258.34;;;9.11;100.00
68197;BME280;55019;49.382;11.358;2023-11-21T12:27:51;96260.94;;;8.87;100.00
68197;BME280;55019;49.382;11.358;2023-11-21T12:30:28;96267.19;;;8.76;100.00
68197;BME280;55019;49.382;11.358;2023-11-21T12:32:56;96268.78;;;8.77;100.00
68197;BME280;55019;49.382;11.358;2023-11-21T12:35:28;96264.09;;;8.65;100.00
68197;BME280;55019;49.382;11.358;2023-11-21T12:37:56;96274.41;;;8.65;100.00
68197;BME280;55019;49.382;11.358;2023-11-21T12:40:23;96279.44;;;8.82;100.00
68197;BME280;55019;49.382;11.358;2023-11-21T12:42:51;96271.03;;;8.72;100.00
68197;BME280;55019;49.382;11.358;2023-11-21T12:45:26;96283.59;;;8.75;100.00
68197;BME280;55019;49.382;11.358;2023-11-21T12:48:03;96277.34;;;8.70;100.00
68197;BME280;55019;49.382;11.358;2023-11-21T12:50:34;96275.53;;;8.55;100.00
68197;BME280;55019;49.382;11.358;2023-11-21T12:53:10;96283.91;;;8.57;100.00
68197;BME280;55019;49.382;11.358;2023-11-21T12:55:38;96281.47;;;8.63;100.00
68197;BME280;55019;49.382;11.358;2023-11-21T12:58:05;96285.53;;;8.65;100.00
68197;BME280;55019;49.382;11.358;2023-11-21T13:03:05;96295.19;;;8.71;100.00